sensor_id;sensor_type;location;lat;lon;timestamp;P1;durP1;ratioP1;P2;durP2;ratioP2
34924;SDS011;21130;51.728;8.748;2023-12-20T00:00:20;29.77;;;20.23;;
34924;SDS011;21130;51.728;8.748;2023-12-20T00:02:49;27.25;;;18.95;;
34924;SDS011;21130;51.728;8.748;2023-12-20T00:05:15;28.85;;;18.88;;
34924;SDS011;21130;51.728;8.748;2023-12-20T00:07:43;28.08;;;19.58;;
34924;SDS011;21130;51.728;8.748;2023-12-20T00:10:10;28.10;;;19.55;;
34924;SDS011;21130;51.728;8.748;2023-12-20T00:12:38;24.60;;;16.42;;
34924;SDS011;21130;51.728;8.748;2023-12-20T00:15:05;16.83;;;11.75;;
34924;SDS011;21130;51.728;8.748;2023-12-20T00:17:32;15.70;;;11.50;;
34924;SDS011;21130;51.728;8.748;2023-12-20T00:19:58;13.13;;;10.10;;
34924;SDS011;21130;51.728;8.748;2023-12-20T00:22:24;12.18;;;9.68;;
34924;SDS011;21130;51.728;8.748;2023-12-20T00:24:52;13.63;;;10.57;;
34924;SDS011;21130;51.728;8.748;2023-12-20T00:27:19;15.30;;;11.63;;
34924;SDS011;21130;51.728;8.748;2023-12-20T00:29:46;18.38;;;12.20;;
34924;SDS011;21130;51.728;8.748;2023-12-20T00:32:14;15.63;;;12.20;;
34924;SDS011;21130;51.728;8.748;2023-12-20T00:34:41;14.85;;;11.55;;
34924;SDS011;21130;51.728;8.748;2023-12-20T00:37:07;17.25;;;12.57;;
34924;SDS011;21130;51.728;8.748;2023-12-20T00:39:33;18.70;;;12.98;;
34924;SDS011;21130;51.728;8.748;2023-12-20T00:42:01;17.60;;;12.35;;
34924;SDS011;21130;51.728;8.748;2023-12-20T00:44:28;16.45;;;11.25;;
34924;SDS011;21130;51.728;8.748;2023-12-20T00:46:54;15.40;;;11.40;;
34924;SDS011;21130;51.728;8.748;2023-12-20T00:49:21;13.02;;;9.82;;
34924;SDS011;21130;51.728;8.748;2023-12-20T00:51:47;12.02;;;9.70;;
34924;SDS011;21130;51.728;8.748;2023-12-20T00:54:15;10.13;;;8.57;;
34924;SDS011;21130;51.728;8.748;2023-12-20T00:56:41;11.77;;;7.68;;
34924;SDS011;21130;51.728;8.748;2023-12-20T00:59:09;10.20;;;8.15;;
34924;SDS011;21130;51.728;8.748;2023-12-20T01:01:36;8.98;;;6.40;;
34924;SDS011;21130;51.728;8.748;2023-12-20T01:04:02;8.07;;;6.30;;
34924;SDS011;21130;51.728;8.748;2023-12-20T01:06:29;9.55;;;5.47;;
34924;SDS011;21130;51.728;8.748;2023-12-20T01:08:55;7.47;;;5.55;;
34924;SDS011;21130;51.728;8.748;2023-12-20T01:11:22;9.73;;;5.70;;
34924;SDS011;21130;51.728;8.748;2023-12-20T01:13:48;8.40;;;5.50;;
34924;SDS011;21130;51.728;8.748;2023-12-20T01:16:16;10.00;;;5.03;;
34924;SDS011;21130;51.728;8.748;2023-12-20T01:18:42;7.47;;;5.05;;
34924;SDS011;21130;51.728;8.748;2023-12-20T01:21:08;8.13;;;5.25;;
34924;SDS011;21130;51.728;8.748;2023-12-20T01:23:35;7.55;;;5.38;;
34924;SDS011;21130;51.728;8.748;2023-12-20T01:26:01;8.07;;;5.43;;
34924;SDS011;21130;51.728;8.748;2023-12-20T01:28:29;8.63;;;5.55;;
34924;SDS011;21130;51.728;8.748;2023-12-20T01:30:56;9.95;;;5.25;;
34924;SDS011;21130;51.728;8.748;2023-12-20T01:33:24;10.55;;;5.10;;
34924;SDS011;21130;51.728;8.748;2023-12-20T01:35:51;9.10;;;5.40;;
34924;SDS011;21130;51.728;8.748;2023-12-20T01:38:17;7.03;;;5.10;;
34924;SDS011;21130;51.728;8.748;2023-12-20T01:40:44;7.60;;;5.15;;
34924;SDS011;21130;51.728;8.748;2023-12-20T01:43:10;11.55;;;5.18;;
34924;SDS011;21130;51.728;8.748;2023-12-20T01:45:37;9.77;;;5.75;;
34924;SDS011;21130;51.728;8.748;2023-12-20T01:48:04;12.73;;;5.88;;
34924;SDS011;21130;51.728;8.748;2023-12-20T01:50:34;9.27;;;5.97;;
34924;SDS011;21130;51.728;8.748;2023-12-20T01:53:02;13.45;;;6.18;;
34924;SDS011;21130;51.728;8.748;2023-12-20T01:55:31;12.07;;;6.13;;
34924;SDS011;21130;51.728;8.748;2023-12-20T01:58:00;11.55;;;6.63;;
34924;SDS011;21130;51.728;8.748;2023-12-20T02:00:27;12.27;;;6.82;;
34924;SDS011;21130;51.728;8.748;2023-12-20T02:02:55;10.60;;;6.63;;
34924;SDS011;21130;51.728;8.748;2023-12-20T02:05:22;15.18;;;7.28;;
34924;SDS011;21130;51.728;8.748;2023-12-20T02:07:52;18.95;;;7.72;;
34924;SDS011;21130;51.728;8.748;2023-12-20T02:10:17;11.55;;;7.03;;
34924;SDS011;21130;51.728;8.748;2023-12-20T02:12:44;11.82;;;7.18;;
34924;SDS011;21130;51.728;8.748;2023-12-20T02:15:10;12.82;;;7.40;;
34924;SDS011;21130;51.728;8.748;2023-12-20T02:17:36;12.65;;;7.05;;
34924;SDS011;21130;51.728;8.748;2023-12-20T02:20:06;14.18;;;7.13;;
34924;SDS011;21130;51.728;8.748;2023-12-20T02:22:34;12.30;;;7.88;;
34924;SDS011;21130;51.728;8.748;2023-12-20T02:25:00;13.48;;;7.10;;
34924;SDS011;21130;51.728;8.748;2023-12-20T02:27:27;18.17;;;7.75;;
34924;SDS011;21130;51.728;8.748;2023-12-20T02:29:54;12.55;;;7.18;;
34924;SDS011;21130;51.728;8.748;2023-12-20T02:32:22;12.85;;;6.75;;
34924;SDS011;21130;51.728;8.748;2023-12-20T02:34:51;16.23;;;7.05;;
34924;SDS011;21130;51.728;8.748;2023-12-20T02:37:18;14.55;;;7.07;;
34924;SDS011;21130;51.728;8.748;2023-12-20T02:39:45;10.13;;;6.15;;
34924;SDS011;21130;51.728;8.748;2023-12-20T02:42:12;10.60;;;6.97;;
34924;SDS011;21130;51.728;8.748;2023-12-20T02:44:38;14.88;;;7.20;;
34924;SDS011;21130;51.728;8.748;2023-12-20T02:47:05;13.38;;;7.63;;
34924;SDS011;21130;51.728;8.748;2023-12-20T02:49:31;11.00;;;6.90;;
34924;SDS011;21130;51.728;8.748;2023-12-20T02:51:57;14.93;;;7.50;;
34924;SDS011;21130;51.728;8.748;2023-12-20T02:54:24;15.80;;;7.43;;
34924;SDS011;21130;51.728;8.748;2023-12-20T02:56:52;11.15;;;7.13;;
34924;SDS011;21130;51.728;8.748;2023-12-20T02:59:18;16.02;;;7.20;;
34924;SDS011;21130;51.728;8.748;2023-12-20T03:01:45;13.30;;;6.82;;
34924;SDS011;21130;51.728;8.748;2023-12-20T03:04:12;12.85;;;7.10;;
34924;SDS011;21130;51.728;8.748;2023-12-20T03:06:38;14.90;;;6.70;;
34924;SDS011;21130;51.728;8.748;2023-12-20T03:09:05;14.95;;;6.68;;
34924;SDS011;21130;51.728;8.748;2023-12-20T03:11:31;14.35;;;6.43;;
34924;SDS011;21130;51.728;8.748;2023-12-20T03:13:59;14.45;;;7.25;;
34924;SDS011;21130;51.728;8.748;2023-12-20T03:16:25;14.70;;;6.80;;
34924;SDS011;21130;51.728;8.748;2023-12-20T03:18:52;9.50;;;6.82;;
34924;SDS011;21130;51.728;8.748;2023-12-20T03:21:18;20.30;;;8.32;;
34924;SDS011;21130;51.728;8.748;2023-12-20T03:23:45;13.38;;;8.27;;
34924;SDS011;21130;51.728;8.748;2023-12-20T03:26:11;20.05;;;8.98;;
34924;SDS011;21130;51.728;8.748;2023-12-20T03:28:37;15.77;;;8.65;;
34924;SDS011;21130;51.728;8.748;2023-12-20T03:31:05;17.88;;;9.20;;
34924;SDS011;21130;51.728;8.748;2023-12-20T03:33:31;17.38;;;9.43;;
34924;SDS011;21130;51.728;8.748;2023-12-20T03:35:58;19.20;;;10.00;;
34924;SDS011;21130;51.728;8.748;2023-12-20T03:38:44;17.83;;;9.23;;
34924;SDS011;21130;51.728;8.748;2023-12-20T03:41:31;15.55;;;9.48;;
34924;SDS011;21130;51.728;8.748;2023-12-20T03:44:15;15.32;;;8.70;;
34924;SDS011;21130;51.728;8.748;2023-12-20T03:46:43;19.58;;;9.40;;
34924;SDS011;21130;51.728;8.748;2023-12-20T03:49:10;16.15;;;8.77;;
34924;SDS011;21130;51.728;8.748;2023-12-20T03:51:37;16.45;;;8.70;;
34924;SDS011;21130;51.728;8.748;2023-12-20T03:54:03;20.08;;;8.90;;
34924;SDS011;21130;51.728;8.748;2023-12-20T03:56:30;15.23;;;8.23;;
34924;SDS011;21130;51.728;8.748;2023-12-20T03:58:56;17.55;;;8.60;;
34924;SDS011;21130;51.728;8.748;2023-12-20T04:01:22;12.70;;;7.47;;
34924;SDS011;21130;51.728;8.748;2023-12-20T04:03:50;13.75;;;7.85;;
34924;SDS011;21130;51.728;8.748;2023-12-20T04:06:17;19.83;;;7.85;;
34924;SDS011;21130;51.728;8.748;2023-12-20T04:08:43;22.10;;;8.07;;
34924;SDS011;21130;51.728;8.748;2023-12-20T04:11:10;14.00;;;7.15;;
34924;SDS011;21130;51.728;8.748;2023-12-20T04:13:36;20.20;;;7.68;;
34924;SDS011;21130;51.728;8.748;2023-12-20T04:16:03;17.58;;;6.43;;
34924;SDS011;21130;51.728;8.748;2023-12-20T04:18:30;16.40;;;6.90;;
34924;SDS011;21130;51.728;8.748;2023-12-20T04:20:58;18.85;;;7.60;;
34924;SDS011;21130;51.728;8.748;2023-12-20T04:23:24;21.95;;;7.90;;
34924;SDS011;21130;51.728;8.748;2023-12-20T04:25:51;20.48;;;7.78;;
34924;SDS011;21130;51.728;8.748;2023-12-20T04:28:17;18.25;;;7.85;;
34924;SDS011;21130;51.728;8.748;2023-12-20T04:30:43;16.90;;;6.82;;
34924;SDS011;21130;51.728;8.748;2023-12-20T04:33:10;18.45;;;7.57;;
34924;SDS011;21130;51.728;8.748;2023-12-20T04:35:36;14.95;;;7.15;;
34924;SDS011;21130;51.728;8.748;2023-12-20T04:38:04;14.50;;;6.40;;
34924;SDS011;21130;51.728;8.748;2023-12-20T04:40:30;18.15;;;6.88;;
34924;SDS011;21130;51.728;8.748;2023-12-20T04:42:57;13.52;;;6.93;;
34924;SDS011;21130;51.728;8.748;2023-12-20T04:45:23;14.63;;;6.80;;
34924;SDS011;21130;51.728;8.748;2023-12-20T04:47:50;17.45;;;7.05;;
34924;SDS011;21130;51.728;8.748;2023-12-20T04:50:18;19.20;;;6.90;;
34924;SDS011;21130;51.728;8.748;2023-12-20T04:52:45;13.75;;;6.68;;
34924;SDS011;21130;51.728;8.748;2023-12-20T04:55:14;20.13;;;7.07;;
34924;SDS011;21130;51.728;8.748;2023-12-20T04:57:40;16.50;;;6.50;;
34924;SDS011;21130;51.728;8.748;2023-12-20T05:00:08;14.63;;;6.30;;
34924;SDS011;21130;51.728;8.748;2023-12-20T05:02:35;16.48;;;6.60;;
34924;SDS011;21130;51.728;8.748;2023-12-20T05:05:01;19.83;;;7.22;;
34924;SDS011;21130;51.728;8.748;2023-12-20T05:07:27;15.23;;;6.95;;
34924;SDS011;21130;51.728;8.748;2023-12-20T05:09:54;18.13;;;7.47;;
34924;SDS011;21130;51.728;8.748;2023-12-20T05:12:22;16.70;;;6.88;;
34924;SDS011;21130;51.728;8.748;2023-12-20T05:14:48;17.15;;;6.65;;
34924;SDS011;21130;51.728;8.748;2023-12-20T05:17:14;15.07;;;7.25;;
34924;SDS011;21130;51.728;8.748;2023-12-20T05:19:41;18.08;;;7.00;;
34924;SDS011;21130;51.728;8.748;2023-12-20T05:22:07;18.10;;;7.35;;
34924;SDS011;21130;51.728;8.748;2023-12-20T05:24:33;15.82;;;7.40;;
34924;SDS011;21130;51.728;8.748;2023-12-20T05:27:00;15.65;;;6.70;;
34924;SDS011;21130;51.728;8.748;2023-12-20T05:29:28;16.20;;;7.07;;
34924;SDS011;21130;51.728;8.748;2023-12-20T05:31:54;18.60;;;6.90;;
34924;SDS011;21130;51.728;8.748;2023-12-20T05:34:20;21.35;;;7.32;;
34924;SDS011;21130;51.728;8.748;2023-12-20T05:36:47;22.33;;;7.18;;
34924;SDS011;21130;51.728;8.748;2023-12-20T05:39:13;17.00;;;6.45;;
34924;SDS011;21130;51.728;8.748;2023-12-20T05:41:39;16.25;;;7.72;;
34924;SDS011;21130;51.728;8.748;2023-12-20T05:44:06;16.55;;;7.15;;
34924;SDS011;21130;51.728;8.748;2023-12-20T05:46:33;17.77;;;7.50;;
34924;SDS011;21130;51.728;8.748;2023-12-20T05:49:00;20.02;;;8.05;;
34924;SDS011;21130;51.728;8.748;2023-12-20T05:51:26;17.02;;;7.82;;
34924;SDS011;21130;51.728;8.748;2023-12-20T05:53:53;17.77;;;8.07;;
34924;SDS011;21130;51.728;8.748;2023-12-20T05:56:19;23.13;;;8.02;;
34924;SDS011;21130;51.728;8.748;2023-12-20T05:58:46;16.00;;;7.47;;
34924;SDS011;21130;51.728;8.748;2023-12-20T06:01:13;21.23;;;7.35;;
34924;SDS011;21130;51.728;8.748;2023-12-20T06:03:43;22.67;;;8.38;;
34924;SDS011;21130;51.728;8.748;2023-12-20T06:06:11;20.67;;;8.75;;
34924;SDS011;21130;51.728;8.748;2023-12-20T06:08:37;21.70;;;9.15;;
34924;SDS011;21130;51.728;8.748;2023-12-20T06:11:04;27.45;;;10.40;;
34924;SDS011;21130;51.728;8.748;2023-12-20T06:13:31;18.42;;;9.95;;
34924;SDS011;21130;51.728;8.748;2023-12-20T06:15:57;23.58;;;10.63;;
34924;SDS011;21130;51.728;8.748;2023-12-20T06:18:24;20.77;;;10.02;;
34924;SDS011;21130;51.728;8.748;2023-12-20T06:20:52;23.45;;;10.25;;
34924;SDS011;21130;51.728;8.748;2023-12-20T06:23:18;32.05;;;10.30;;
34924;SDS011;21130;51.728;8.748;2023-12-20T06:25:44;17.75;;;9.43;;
34924;SDS011;21130;51.728;8.748;2023-12-20T06:28:11;23.77;;;9.95;;
34924;SDS011;21130;51.728;8.748;2023-12-20T06:30:39;23.63;;;10.57;;
34924;SDS011;21130;51.728;8.748;2023-12-20T06:33:05;34.97;;;10.15;;
34924;SDS011;21130;51.728;8.748;2023-12-20T06:35:34;22.63;;;11.55;;
34924;SDS011;21130;51.728;8.748;2023-12-20T06:38:03;17.45;;;9.93;;
34924;SDS011;21130;51.728;8.748;2023-12-20T06:40:29;22.70;;;10.88;;
34924;SDS011;21130;51.728;8.748;2023-12-20T06:42:56;22.70;;;11.18;;
34924;SDS011;21130;51.728;8.748;2023-12-20T06:45:22;24.23;;;11.65;;
34924;SDS011;21130;51.728;8.748;2023-12-20T06:47:49;27.50;;;11.63;;
34924;SDS011;21130;51.728;8.748;2023-12-20T06:50:15;26.65;;;12.15;;
34924;SDS011;21130;51.728;8.748;2023-12-20T06:52:42;23.35;;;11.65;;
34924;SDS011;21130;51.728;8.748;2023-12-20T06:55:10;27.10;;;11.70;;
34924;SDS011;21130;51.728;8.748;2023-12-20T06:57:37;28.90;;;12.13;;
34924;SDS011;21130;51.728;8.748;2023-12-20T07:00:04;20.95;;;11.50;;
34924;SDS011;21130;51.728;8.748;2023-12-20T07:02:31;21.77;;;11.38;;
34924;SDS011;21130;51.728;8.748;2023-12-20T07:04:57;27.23;;;11.32;;
34924;SDS011;21130;51.728;8.748;2023-12-20T07:07:24;22.27;;;11.43;;
34924;SDS011;21130;51.728;8.748;2023-12-20T07:09:51;27.23;;;11.90;;
34924;SDS011;21130;51.728;8.748;2023-12-20T07:12:19;25.17;;;12.13;;
34924;SDS011;21130;51.728;8.748;2023-12-20T07:14:45;26.33;;;11.98;;
34924;SDS011;21130;51.728;8.748;2023-12-20T07:17:12;26.80;;;12.63;;
34924;SDS011;21130;51.728;8.748;2023-12-20T07:19:40;27.35;;;12.02;;
34924;SDS011;21130;51.728;8.748;2023-12-20T07:22:06;30.27;;;12.95;;
34924;SDS011;21130;51.728;8.748;2023-12-20T07:24:33;29.23;;;12.32;;
34924;SDS011;21130;51.728;8.748;2023-12-20T07:27:00;27.52;;;11.38;;
34924;SDS011;21130;51.728;8.748;2023-12-20T07:29:28;22.75;;;10.85;;
34924;SDS011;21130;51.728;8.748;2023-12-20T07:31:54;26.27;;;11.52;;
34924;SDS011;21130;51.728;8.748;2023-12-20T07:34:21;23.80;;;11.52;;
34924;SDS011;21130;51.728;8.748;2023-12-20T07:36:47;30.33;;;12.13;;
34924;SDS011;21130;51.728;8.748;2023-12-20T07:39:13;27.73;;;11.80;;
34924;SDS011;21130;51.728;8.748;2023-12-20T07:41:40;23.85;;;11.07;;
34924;SDS011;21130;51.728;8.748;2023-12-20T07:44:06;26.05;;;11.38;;
34924;SDS011;21130;51.728;8.748;2023-12-20T07:46:34;27.92;;;12.18;;
34924;SDS011;21130;51.728;8.748;2023-12-20T07:49:00;27.23;;;11.88;;
34924;SDS011;21130;51.728;8.748;2023-12-20T07:51:27;25.00;;;11.10;;
34924;SDS011;21130;51.728;8.748;2023-12-20T07:53:54;25.27;;;11.63;;
34924;SDS011;21130;51.728;8.748;2023-12-20T07:56:21;25.42;;;11.00;;
34924;SDS011;21130;51.728;8.748;2023-12-20T07:58:48;26.52;;;10.77;;
34924;SDS011;21130;51.728;8.748;2023-12-20T08:01:15;20.45;;;10.20;;
34924;SDS011;21130;51.728;8.748;2023-12-20T08:03:43;24.45;;;10.80;;
34924;SDS011;21130;51.728;8.748;2023-12-20T08:06:10;23.95;;;9.18;;
34924;SDS011;21130;51.728;8.748;2023-12-20T08:08:36;24.17;;;9.73;;
34924;SDS011;21130;51.728;8.748;2023-12-20T08:11:03;26.77;;;9.65;;
34924;SDS011;21130;51.728;8.748;2023-12-20T08:13:29;18.98;;;9.13;;
34924;SDS011;21130;51.728;8.748;2023-12-20T08:15:56;22.08;;;9.95;;
34924;SDS011;21130;51.728;8.748;2023-12-20T08:18:22;18.00;;;8.13;;
34924;SDS011;21130;51.728;8.748;2023-12-20T08:20:50;23.77;;;9.50;;
34924;SDS011;21130;51.728;8.748;2023-12-20T08:23:18;24.08;;;10.02;;
34924;SDS011;21130;51.728;8.748;2023-12-20T08:25:45;20.70;;;9.82;;
34924;SDS011;21130;51.728;8.748;2023-12-20T08:28:12;20.88;;;9.20;;
34924;SDS011;21130;51.728;8.748;2023-12-20T08:30:38;19.55;;;9.00;;
34924;SDS011;21130;51.728;8.748;2023-12-20T08:33:05;26.70;;;8.75;;
34924;SDS011;21130;51.728;8.748;2023-12-20T08:35:36;22.35;;;9.25;;
34924;SDS011;21130;51.728;8.748;2023-12-20T08:38:04;21.98;;;9.38;;
34924;SDS011;21130;51.728;8.748;2023-12-20T08:40:36;22.25;;;8.77;;
34924;SDS011;21130;51.728;8.748;2023-12-20T08:43:02;20.60;;;8.80;;
34924;SDS011;21130;51.728;8.748;2023-12-20T08:45:29;22.73;;;9.73;;
34924;SDS011;21130;51.728;8.748;2023-12-20T08:47:58;21.80;;;8.90;;
34924;SDS011;21130;51.728;8.748;2023-12-20T08:50:25;18.55;;;9.00;;
34924;SDS011;21130;51.728;8.748;2023-12-20T08:52:51;20.33;;;9.02;;
34924;SDS011;21130;51.728;8.748;2023-12-20T08:55:20;14.52;;;8.13;;
34924;SDS011;21130;51.728;8.748;2023-12-20T08:57:46;22.30;;;8.85;;
34924;SDS011;21130;51.728;8.748;2023-12-20T09:00:14;21.27;;;8.15;;
34924;SDS011;21130;51.728;8.748;2023-12-20T09:02:41;20.02;;;8.20;;
34924;SDS011;21130;51.728;8.748;2023-12-20T09:05:07;21.13;;;8.00;;
34924;SDS011;21130;51.728;8.748;2023-12-20T09:07:34;20.17;;;8.40;;
34924;SDS011;21130;51.728;8.748;2023-12-20T09:10:01;18.45;;;7.43;;
34924;SDS011;21130;51.728;8.748;2023-12-20T09:12:29;20.63;;;7.00;;
34924;SDS011;21130;51.728;8.748;2023-12-20T09:14:55;18.83;;;7.10;;
34924;SDS011;21130;51.728;8.748;2023-12-20T09:17:22;20.52;;;7.75;;
34924;SDS011;21130;51.728;8.748;2023-12-20T09:19:48;22.15;;;7.72;;
34924;SDS011;21130;51.728;8.748;2023-12-20T09:22:17;23.40;;;7.75;;
34924;SDS011;21130;51.728;8.748;2023-12-20T09:24:44;20.80;;;8.02;;
34924;SDS011;21130;51.728;8.748;2023-12-20T09:27:10;14.52;;;7.15;;
34924;SDS011;21130;51.728;8.748;2023-12-20T09:29:38;16.13;;;6.95;;
34924;SDS011;21130;51.728;8.748;2023-12-20T09:32:04;19.25;;;7.78;;
34924;SDS011;21130;51.728;8.748;2023-12-20T09:34:31;19.60;;;7.28;;
34924;SDS011;21130;51.728;8.748;2023-12-20T09:36:58;17.02;;;7.57;;
34924;SDS011;21130;51.728;8.748;2023-12-20T09:39:24;20.25;;;8.20;;
34924;SDS011;21130;51.728;8.748;2023-12-20T09:41:51;20.65;;;7.70;;
34924;SDS011;21130;51.728;8.748;2023-12-20T09:44:26;15.25;;;7.43;;
34924;SDS011;21130;51.728;8.748;2023-12-20T09:46:54;21.70;;;8.20;;
34924;SDS011;21130;51.728;8.748;2023-12-20T09:49:22;17.08;;;8.55;;
34924;SDS011;21130;51.728;8.748;2023-12-20T09:51:49;25.08;;;8.18;;
34924;SDS011;21130;51.728;8.748;2023-12-20T09:54:17;17.05;;;7.97;;
34924;SDS011;21130;51.728;8.748;2023-12-20T09:56:46;24.15;;;9.07;;
34924;SDS011;21130;51.728;8.748;2023-12-20T09:59:13;15.55;;;7.85;;
34924;SDS011;21130;51.728;8.748;2023-12-20T10:01:40;25.55;;;9.05;;
34924;SDS011;21130;51.728;8.748;2023-12-20T10:04:08;26.30;;;8.45;;
34924;SDS011;21130;51.728;8.748;2023-12-20T10:06:37;16.25;;;8.02;;
34924;SDS011;21130;51.728;8.748;2023-12-20T10:09:04;20.30;;;8.82;;
34924;SDS011;21130;51.728;8.748;2023-12-20T10:11:30;16.08;;;8.65;;
34924;SDS011;21130;51.728;8.748;2023-12-20T10:13:58;17.08;;;9.00;;
34924;SDS011;21130;51.728;8.748;2023-12-20T10:16:26;14.35;;;8.32;;
34924;SDS011;21130;51.728;8.748;2023-12-20T10:18:52;17.00;;;8.57;;
34924;SDS011;21130;51.728;8.748;2023-12-20T10:21:20;20.20;;;8.43;;
34924;SDS011;21130;51.728;8.748;2023-12-20T10:23:47;29.92;;;9.70;;
34924;SDS011;21130;51.728;8.748;2023-12-20T10:26:18;17.65;;;9.05;;
34924;SDS011;21130;51.728;8.748;2023-12-20T10:28:45;15.88;;;8.23;;
34924;SDS011;21130;51.728;8.748;2023-12-20T10:31:20;23.25;;;9.15;;
34924;SDS011;21130;51.728;8.748;2023-12-20T10:33:52;18.35;;;9.15;;
34924;SDS011;21130;51.728;8.748;2023-12-20T10:36:18;16.85;;;8.60;;
34924;SDS011;21130;51.728;8.748;2023-12-20T10:38:46;25.35;;;9.27;;
34924;SDS011;21130;51.728;8.748;2023-12-20T10:41:16;19.48;;;7.10;;
34924;SDS011;21130;51.728;8.748;2023-12-20T10:43:45;16.05;;;8.48;;
34924;SDS011;21130;51.728;8.748;2023-12-20T10:46:13;19.77;;;7.82;;
34924;SDS011;21130;51.728;8.748;2023-12-20T10:48:39;18.80;;;8.02;;
34924;SDS011;21130;51.728;8.748;2023-12-20T10:51:07;23.80;;;7.82;;
34924;SDS011;21130;51.728;8.748;2023-12-20T10:53:35;20.63;;;8.05;;
34924;SDS011;21130;51.728;8.748;2023-12-20T10:56:04;17.65;;;8.70;;
34924;SDS011;21130;51.728;8.748;2023-12-20T10:58:34;23.02;;;9.02;;
34924;SDS011;21130;51.728;8.748;2023-12-20T11:01:03;16.00;;;7.65;;
34924;SDS011;21130;51.728;8.748;2023-12-20T11:03:31;16.52;;;8.30;;
34924;SDS011;21130;51.728;8.748;2023-12-20T11:06:02;18.45;;;7.43;;
34924;SDS011;21130;51.728;8.748;2023-12-20T11:08:35;15.57;;;7.32;;
34924;SDS011;21130;51.728;8.748;2023-12-20T11:11:07;20.33;;;7.60;;
34924;SDS011;21130;51.728;8.748;2023-12-20T11:13:40;14.50;;;7.10;;
34924;SDS011;21130;51.728;8.748;2023-12-20T11:16:14;22.02;;;8.63;;
34924;SDS011;21130;51.728;8.748;2023-12-20T11:18:40;21.40;;;7.93;;
34924;SDS011;21130;51.728;8.748;2023-12-20T11:21:07;17.88;;;8.00;;
34924;SDS011;21130;51.728;8.748;2023-12-20T11:23:33;18.17;;;8.52;;
34924;SDS011;21130;51.728;8.748;2023-12-20T11:26:01;22.95;;;8.52;;
34924;SDS011;21130;51.728;8.748;2023-12-20T11:28:29;12.98;;;7.93;;
34924;SDS011;21130;51.728;8.748;2023-12-20T11:30:57;17.60;;;8.15;;
34924;SDS011;21130;51.728;8.748;2023-12-20T11:33:25;17.65;;;8.05;;
34924;SDS011;21130;51.728;8.748;2023-12-20T11:35:55;28.65;;;9.43;;
34924;SDS011;21130;51.728;8.748;2023-12-20T11:38:23;41.47;;;11.75;;
34924;SDS011;21130;51.728;8.748;2023-12-20T11:40:50;16.67;;;7.88;;
34924;SDS011;21130;51.728;8.748;2023-12-20T11:43:31;16.45;;;8.02;;
34924;SDS011;21130;51.728;8.748;2023-12-20T11:46:02;17.67;;;7.97;;
34924;SDS011;21130;51.728;8.748;2023-12-20T11:48:29;24.67;;;9.13;;
34924;SDS011;21130;51.728;8.748;2023-12-20T11:50:56;16.95;;;7.75;;
34924;SDS011;21130;51.728;8.748;2023-12-20T11:53:25;20.95;;;8.65;;
34924;SDS011;21130;51.728;8.748;2023-12-20T11:55:51;21.00;;;8.10;;
34924;SDS011;21130;51.728;8.748;2023-12-20T11:58:19;14.07;;;8.07;;
34924;SDS011;21130;51.728;8.748;2023-12-20T12:00:48;15.55;;;8.57;;
34924;SDS011;21130;51.728;8.748;2023-12-20T12:34:13;18.20;;;9.07;;
34924;SDS011;21130;51.728;8.748;2023-12-20T12:36:41;21.80;;;9.07;;
34924;SDS011;21130;51.728;8.748;2023-12-20T12:39:07;18.52;;;9.23;;
34924;SDS011;21130;51.728;8.748;2023-12-20T12:41:34;21.15;;;9.07;;
34924;SDS011;21130;51.728;8.748;2023-12-20T12:44:01;17.23;;;8.90;;
34924;SDS011;21130;51.728;8.748;2023-12-20T12:46:27;18.92;;;8.95;;
34924;SDS011;21130;51.728;8.748;2023-12-20T12:48:54;14.90;;;8.52;;
34924;SDS011;21130;51.728;8.748;2023-12-20T12:51:22;17.08;;;8.88;;
34924;SDS011;21130;51.728;8.748;2023-12-20T12:53:49;17.75;;;9.10;;
34924;SDS011;21130;51.728;8.748;2023-12-20T12:56:17;20.58;;;9.20;;
34924;SDS011;21130;51.728;8.748;2023-12-20T12:58:43;16.33;;;8.45;;
34924;SDS011;21130;51.728;8.748;2023-12-20T13:01:10;18.60;;;9.05;;
34924;SDS011;21130;51.728;8.748;2023-12-20T13:03:37;12.27;;;7.97;;
34924;SDS011;21130;51.728;8.748;2023-12-20T13:06:04;15.27;;;8.25;;
34924;SDS011;21130;51.728;8.748;2023-12-20T13:08:32;16.58;;;7.72;;
34924;SDS011;21130;51.728;8.748;2023-12-20T13:10:58;16.33;;;8.40;;
34924;SDS011;21130;51.728;8.748;2023-12-20T13:13:25;13.93;;;7.90;;
34924;SDS011;21130;51.728;8.748;2023-12-20T13:15:52;18.02;;;7.85;;
34924;SDS011;21130;51.728;8.748;2023-12-20T13:18:20;16.88;;;7.68;;
34924;SDS011;21130;51.728;8.748;2023-12-20T13:20:46;17.17;;;7.18;;
34924;SDS011;21130;51.728;8.748;2023-12-20T13:23:13;14.25;;;6.55;;
34924;SDS011;21130;51.728;8.748;2023-12-20T13:25:40;13.27;;;7.05;;
34924;SDS011;21130;51.728;8.748;2023-12-20T13:28:07;13.75;;;6.43;;
34924;SDS011;21130;51.728;8.748;2023-12-20T13:30:34;13.15;;;6.20;;
34924;SDS011;21130;51.728;8.748;2023-12-20T13:33:01;12.82;;;6.75;;
34924;SDS011;21130;51.728;8.748;2023-12-20T13:35:27;16.15;;;6.50;;
34924;SDS011;21130;51.728;8.748;2023-12-20T13:37:54;13.48;;;6.53;;
34924;SDS011;21130;51.728;8.748;2023-12-20T13:40:21;12.63;;;6.63;;
34924;SDS011;21130;51.728;8.748;2023-12-20T13:42:49;16.10;;;6.53;;
34924;SDS011;21130;51.728;8.748;2023-12-20T13:45:15;16.05;;;6.75;;
34924;SDS011;21130;51.728;8.748;2023-12-20T13:47:42;20.48;;;6.68;;
34924;SDS011;21130;51.728;8.748;2023-12-20T13:50:08;16.25;;;6.50;;
34924;SDS011;21130;51.728;8.748;2023-12-20T13:52:36;14.07;;;6.85;;
34924;SDS011;21130;51.728;8.748;2023-12-20T13:55:04;13.88;;;6.72;;
34924;SDS011;21130;51.728;8.748;2023-12-20T13:57:32;18.05;;;6.75;;
34924;SDS011;21130;51.728;8.748;2023-12-20T14:00:00;13.90;;;7.25;;
34924;SDS011;21130;51.728;8.748;2023-12-20T14:02:28;17.88;;;7.75;;
34924;SDS011;21130;51.728;8.748;2023-12-20T14:04:54;16.63;;;8.00;;
34924;SDS011;21130;51.728;8.748;2023-12-20T14:07:21;12.75;;;8.18;;
34924;SDS011;21130;51.728;8.748;2023-12-20T14:09:47;9.93;;;7.03;;
34924;SDS011;21130;51.728;8.748;2023-12-20T14:12:14;16.15;;;7.97;;
34924;SDS011;21130;51.728;8.748;2023-12-20T14:14:40;12.73;;;7.78;;
34924;SDS011;21130;51.728;8.748;2023-12-20T14:17:08;14.43;;;7.85;;
34924;SDS011;21130;51.728;8.748;2023-12-20T14:19:35;18.10;;;8.45;;
34924;SDS011;21130;51.728;8.748;2023-12-20T14:22:01;11.35;;;8.30;;
34924;SDS011;21130;51.728;8.748;2023-12-20T14:24:29;15.38;;;8.18;;
34924;SDS011;21130;51.728;8.748;2023-12-20T14:26:55;15.50;;;8.15;;
34924;SDS011;21130;51.728;8.748;2023-12-20T14:29:23;15.52;;;8.48;;
34924;SDS011;21130;51.728;8.748;2023-12-20T14:31:50;15.20;;;9.73;;
34924;SDS011;21130;51.728;8.748;2023-12-20T14:34:17;14.55;;;9.43;;
34924;SDS011;21130;51.728;8.748;2023-12-20T14:36:44;14.73;;;9.13;;
34924;SDS011;21130;51.728;8.748;2023-12-20T14:39:10;16.45;;;9.57;;
34924;SDS011;21130;51.728;8.748;2023-12-20T14:44:44;13.77;;;9.75;;
34924;SDS011;21130;51.728;8.748;2023-12-20T14:47:11;18.63;;;11.00;;
34924;SDS011;21130;51.728;8.748;2023-12-20T14:49:40;19.08;;;10.30;;
34924;SDS011;21130;51.728;8.748;2023-12-20T14:52:08;16.98;;;9.32;;
34924;SDS011;21130;51.728;8.748;2023-12-20T14:54:36;17.13;;;9.48;;
34924;SDS011;21130;51.728;8.748;2023-12-20T14:57:02;21.15;;;9.85;;
34924;SDS011;21130;51.728;8.748;2023-12-20T14:59:29;18.85;;;9.90;;
34924;SDS011;21130;51.728;8.748;2023-12-20T15:01:56;18.02;;;9.18;;
34924;SDS011;21130;51.728;8.748;2023-12-20T15:04:22;24.88;;;10.32;;
34924;SDS011;21130;51.728;8.748;2023-12-20T15:06:55;19.40;;;9.40;;